sensor_id;sensor_type;location;lat;lon;timestamp;temperature;humidity
8605;DHT22;4340;52.516;13.468;2022-09-03T00:00:56;14.90;1.00
8605;DHT22;4340;52.516;13.468;2022-09-03T00:03:28;14.90;1.00
8605;DHT22;4340;52.516;13.468;2022-09-03T00:06:05;14.90;1.00
8605;DHT22;4340;52.516;13.468;2022-09-03T00:08:38;14.90;1.00
8605;DHT22;4340;52.516;13.468;2022-09-03T00:11:11;14.80;1.00
8605;DHT22;4340;52.516;13.468;2022-09-03T00:13:44;14.80;1.00
8605;DHT22;4340;52.516;13.468;2022-09-03T00:16:15;14.70;1.00
8605;DHT22;4340;52.516;13.468;2022-09-03T00:18:45;14.80;1.00
8605;DHT22;4340;52.516;13.468;2022-09-03T00:21:16;14.70;1.00
8605;DHT22;4340;52.516;13.468;2022-09-03T00:23:46;14.60;1.00
8605;DHT22;4340;52.516;13.468;2022-09-03T00:26:19;14.70;1.00
8605;DHT22;4340;52.516;13.468;2022-09-03T00:28:53;14.70;1.00
8605;DHT22;4340;52.516;13.468;2022-09-03T00:31:27;14.60;1.00
8605;DHT22;4340;52.516;13.468;2022-09-03T00:33:57;14.50;1.00
8605;DHT22;4340;52.516;13.468;2022-09-03T00:36:30;14.50;1.00
8605;DHT22;4340;52.516;13.468;2022-09-03T00:38:58;14.60;1.00
8605;DHT22;4340;52.516;13.468;2022-09-03T00:41:32;14.60;1.00
8605;DHT22;4340;52.516;13.468;2022-09-03T00:44:17;14.50;1.00
8605;DHT22;4340;52.516;13.468;2022-09-03T00:46:52;14.60;1.00
8605;DHT22;4340;52.516;13.468;2022-09-03T00:49:31;14.50;1.00
8605;DHT22;4340;52.516;13.468;2022-09-03T00:52:04;14.50;1.00
8605;DHT22;4340;52.516;13.468;2022-09-03T00:54:41;14.50;1.00
8605;DHT22;4340;52.516;13.468;2022-09-03T00:57:21;14.50;1.00
8605;DHT22;4340;52.516;13.468;2022-09-03T00:59:56;14.30;1.00
8605;DHT22;4340;52.516;13.468;2022-09-03T01:02:30;14.30;1.00
8605;DHT22;4340;52.516;13.468;2022-09-03T01:05:06;14.30;1.00
8605;DHT22;4340;52.516;13.468;2022-09-03T01:07:42;14.30;1.00
8605;DHT22;4340;52.516;13.468;2022-09-03T01:10:21;14.30;1.00
8605;DHT22;4340;52.516;13.468;2022-09-03T01:12:57;14.20;1.00
8605;DHT22;4340;52.516;13.468;2022-09-03T01:15:32;14.20;1.00
8605;DHT22;4340;52.516;13.468;2022-09-03T01:18:09;14.10;1.00
8605;DHT22;4340;52.516;13.468;2022-09-03T01:20:47;14.20;1.00
8605;DHT22;4340;52.516;13.468;2022-09-03T01:23:42;14.20;1.00
8605;DHT22;4340;52.516;13.468;2022-09-03T01:26:28;14.10;1.00
8605;DHT22;4340;52.516;13.468;2022-09-03T01:29:03;14.10;1.00
8605;DHT22;4340;52.516;13.468;2022-09-03T01:31:42;14.10;1.00
8605;DHT22;4340;52.516;13.468;2022-09-03T01:34:19;14.10;1.00
8605;DHT22;4340;52.516;13.468;2022-09-03T01:36:54;14.10;1.00
8605;DHT22;4340;52.516;13.468;2022-09-03T01:39:30;14.20;1.00
8605;DHT22;4340;52.516;13.468;2022-09-03T01:42:07;14.00;1.00
8605;DHT22;4340;52.516;13.468;2022-09-03T01:45:02;14.10;1.00
8605;DHT22;4340;52.516;13.468;2022-09-03T01:47:42;14.20;1.00
8605;DHT22;4340;52.516;13.468;2022-09-03T01:50:25;14.10;1.00
8605;DHT22;4340;52.516;13.468;2022-09-03T01:52:58;14.10;1.00
8605;DHT22;4340;52.516;13.468;2022-09-03T01:55:31;14.00;1.00
8605;DHT22;4340;52.516;13.468;2022-09-03T01:58:04;14.00;1.00
8605;DHT22;4340;52.516;13.468;2022-09-03T02:00:33;14.00;1.00
8605;DHT22;4340;52.516;13.468;2022-09-03T02:03:04;13.90;1.00
8605;DHT22;4340;52.516;13.468;2022-09-03T02:05:32;13.80;1.00
8605;DHT22;4340;52.516;13.468;2022-09-03T02:08:01;13.90;1.00
8605;DHT22;4340;52.516;13.468;2022-09-03T02:10:33;13.90;1.00
8605;DHT22;4340;52.516;13.468;2022-09-03T02:13:06;13.70;1.00
8605;DHT22;4340;52.516;13.468;2022-09-03T02:15:37;13.70;1.00
8605;DHT22;4340;52.516;13.468;2022-09-03T02:18:08;13.80;1.00
8605;DHT22;4340;52.516;13.468;2022-09-03T02:20:36;13.70;1.00
8605;DHT22;4340;52.516;13.468;2022-09-03T02:23:03;13.70;1.00
8605;DHT22;4340;52.516;13.468;2022-09-03T02:25:35;13.80;1.00
8605;DHT22;4340;52.516;13.468;2022-09-03T02:28:03;13.60;1.00
8605;DHT22;4340;52.516;13.468;2022-09-03T02:30:31;13.70;1.00
8605;DHT22;4340;52.516;13.468;2022-09-03T02:33:39;13.50;1.00
8605;DHT22;4340;52.516;13.468;2022-09-03T02:36:45;13.50;1.00
8605;DHT22;4340;52.516;13.468;2022-09-03T02:45:25;13.40;1.00
8605;DHT22;4340;52.516;13.468;2022-09-03T02:57:48;13.50;1.00
8605;DHT22;4340;52.516;13.468;2022-09-03T03:00:23;13.50;1.00
8605;DHT22;4340;52.516;13.468;2022-09-03T03:03:22;13.50;1.00
8605;DHT22;4340;52.516;13.468;2022-09-03T03:06:18;13.50;1.00
8605;DHT22;4340;52.516;13.468;2022-09-03T03:09:04;13.40;1.00
8605;DHT22;4340;52.516;13.468;2022-09-03T03:11:31;13.50;1.00
8605;DHT22;4340;52.516;13.468;2022-09-03T03:14:16;13.50;1.00
8605;DHT22;4340;52.516;13.468;2022-09-03T03:16:45;13.40;1.00
8605;DHT22;4340;52.516;13.468;2022-09-03T03:19:16;13.40;1.00
8605;DHT22;4340;52.516;13.468;2022-09-03T03:21:42;13.50;1.00
8605;DHT22;4340;52.516;13.468;2022-09-03T03:24:17;13.40;1.00
8605;DHT22;4340;52.516;13.468;2022-09-03T03:27:00;13.40;1.00
8605;DHT22;4340;52.516;13.468;2022-09-03T03:29:58;13.40;1.00
8605;DHT22;4340;52.516;13.468;2022-09-03T03:32:25;13.40;1.00
8605;DHT22;4340;52.516;13.468;2022-09-03T03:34:53;13.40;1.00
8605;DHT22;4340;52.516;13.468;2022-09-03T03:38:04;13.30;1.00
8605;DHT22;4340;52.516;13.468;2022-09-03T03:41:53;13.30;1.00
8605;DHT22;4340;52.516;13.468;2022-09-03T03:47:19;13.30;1.00
8605;DHT22;4340;52.516;13.468;2022-09-03T03:50:02;13.20;1.00
8605;DHT22;4340;52.516;13.468;2022-09-03T03:52:40;13.20;1.00
8605;DHT22;4340;52.516;13.468;2022-09-03T03:58:39;13.30;1.00
8605;DHT22;4340;52.516;13.468;2022-09-03T04:01:25;13.30;1.00
8605;DHT22;4340;52.516;13.468;2022-09-03T04:04:13;13.20;1.00
8605;DHT22;4340;52.516;13.468;2022-09-03T04:06:49;13.30;1.00
8605;DHT22;4340;52.516;13.468;2022-09-03T04:10:10;13.30;1.00
8605;DHT22;4340;52.516;13.468;2022-09-03T04:12:43;13.40;1.00
8605;DHT22;4340;52.516;13.468;2022-09-03T04:15:11;13.40;1.00
8605;DHT22;4340;52.516;13.468;2022-09-03T04:17:39;13.40;1.00
8605;DHT22;4340;52.516;13.468;2022-09-03T04:20:21;13.30;1.00
8605;DHT22;4340;52.516;13.468;2022-09-03T04:23:21;13.30;1.00
8605;DHT22;4340;52.516;13.468;2022-09-03T04:29:18;13.20;1.00
8605;DHT22;4340;52.516;13.468;2022-09-03T04:35:23;13.20;1.00
8605;DHT22;4340;52.516;13.468;2022-09-03T04:37:58;13.10;1.00
8605;DHT22;4340;52.516;13.468;2022-09-03T04:40:56;13.10;1.00
8605;DHT22;4340;52.516;13.468;2022-09-03T04:43:28;13.10;1.00
8605;DHT22;4340;52.516;13.468;2022-09-03T04:46:35;13.10;1.00
8605;DHT22;4340;52.516;13.468;2022-09-03T04:49:29;13.10;1.00
8605;DHT22;4340;52.516;13.468;2022-09-03T04:52:35;13.10;1.00
8605;DHT22;4340;52.516;13.468;2022-09-03T04:55:14;13.00;1.00
8605;DHT22;4340;52.516;13.468;2022-09-03T05:04:13;13.10;1.00
8605;DHT22;4340;52.516;13.468;2022-09-03T05:07:08;13.00;1.00
8605;DHT22;4340;52.516;13.468;2022-09-03T05:09:40;13.10;1.00
8605;DHT22;4340;52.516;13.468;2022-09-03T05:12:44;13.10;1.00
8605;DHT22;4340;52.516;13.468;2022-09-03T05:15:33;13.20;1.00
8605;DHT22;4340;52.516;13.468;2022-09-03T05:18:05;13.10;1.00
8605;DHT22;4340;52.516;13.468;2022-09-03T05:21:23;13.00;1.00
8605;DHT22;4340;52.516;13.468;2022-09-03T05:24:16;13.10;1.00
8605;DHT22;4340;52.516;13.468;2022-09-03T05:30:12;13.00;1.00
8605;DHT22;4340;52.516;13.468;2022-09-03T05:39:25;13.20;1.00
8605;DHT22;4340;52.516;13.468;2022-09-03T05:42:10;13.30;1.00
8605;DHT22;4340;52.516;13.468;2022-09-03T05:44:55;13.40;1.00
8605;DHT22;4340;52.516;13.468;2022-09-03T05:47:22;13.30;1.00
8605;DHT22;4340;52.516;13.468;2022-09-03T05:49:48;13.30;1.00
8605;DHT22;4340;52.516;13.468;2022-09-03T05:52:15;13.30;1.00
8605;DHT22;4340;52.516;13.468;2022-09-03T05:54:43;13.20;1.00
8605;DHT22;4340;52.516;13.468;2022-09-03T05:57:12;13.20;1.00
8605;DHT22;4340;52.516;13.468;2022-09-03T05:59:39;13.20;1.00
8605;DHT22;4340;52.516;13.468;2022-09-03T06:02:05;13.20;1.00
8605;DHT22;4340;52.516;13.468;2022-09-03T06:04:32;13.30;1.00
8605;DHT22;4340;52.516;13.468;2022-09-03T06:06:58;13.30;1.00
8605;DHT22;4340;52.516;13.468;2022-09-03T06:09:25;13.50;1.00
8605;DHT22;4340;52.516;13.468;2022-09-03T06:11:52;13.50;1.00
8605;DHT22;4340;52.516;13.468;2022-09-03T06:14:20;13.50;1.00
8605;DHT22;4340;52.516;13.468;2022-09-03T06:16:48;13.50;1.00
8605;DHT22;4340;52.516;13.468;2022-09-03T06:19:17;13.50;1.00
8605;DHT22;4340;52.516;13.468;2022-09-03T06:21:44;13.50;1.00
8605;DHT22;4340;52.516;13.468;2022-09-03T06:24:14;13.50;1.00
8605;DHT22;4340;52.516;13.468;2022-09-03T06:26:41;13.60;1.00
8605;DHT22;4340;52.516;13.468;2022-09-03T06:29:08;13.80;1.00
8605;DHT22;4340;52.516;13.468;2022-09-03T06:31:37;13.90;1.00
8605;DHT22;4340;52.516;13.468;2022-09-03T06:34:04;14.00;1.00
8605;DHT22;4340;52.516;13.468;2022-09-03T06:36:31;14.00;1.00
8605;DHT22;4340;52.516;13.468;2022-09-03T06:38:58;14.10;1.00
8605;DHT22;4340;52.516;13.468;2022-09-03T06:41:26;14.00;1.00
8605;DHT22;4340;52.516;13.468;2022-09-03T06:43:56;14.10;1.00
8605;DHT22;4340;52.516;13.468;2022-09-03T06:46:27;14.20;1.00
8605;DHT22;4340;52.516;13.468;2022-09-03T06:48:56;14.30;1.00
8605;DHT22;4340;52.516;13.468;2022-09-03T06:51:23;14.20;1.00
8605;DHT22;4340;52.516;13.468;2022-09-03T06:53:52;14.20;1.00
8605;DHT22;4340;52.516;13.468;2022-09-03T06:56:22;14.30;1.00
8605;DHT22;4340;52.516;13.468;2022-09-03T06:58:52;14.30;1.00
8605;DHT22;4340;52.516;13.468;2022-09-03T07:01:21;14.50;1.00
8605;DHT22;4340;52.516;13.468;2022-09-03T07:03:52;14.60;1.00
8605;DHT22;4340;52.516;13.468;2022-09-03T07:06:23;14.70;1.00
8605;DHT22;4340;52.516;13.468;2022-09-03T07:08:50;14.80;1.00
8605;DHT22;4340;52.516;13.468;2022-09-03T07:11:18;14.90;1.00
8605;DHT22;4340;52.516;13.468;2022-09-03T07:13:47;15.00;1.00
8605;DHT22;4340;52.516;13.468;2022-09-03T07:16:15;15.10;1.00
8605;DHT22;4340;52.516;13.468;2022-09-03T07:18:43;15.10;1.00
8605;DHT22;4340;52.516;13.468;2022-09-03T07:21:12;15.10;1.00
8605;DHT22;4340;52.516;13.468;2022-09-03T07:23:41;15.10;1.00
8605;DHT22;4340;52.516;13.468;2022-09-03T07:26:10;15.20;1.00
8605;DHT22;4340;52.516;13.468;2022-09-03T07:28:39;15.20;1.00
8605;DHT22;4340;52.516;13.468;2022-09-03T07:31:08;15.30;1.00
8605;DHT22;4340;52.516;13.468;2022-09-03T07:33:34;15.30;1.00
8605;DHT22;4340;52.516;13.468;2022-09-03T07:36:02;15.30;1.00
8605;DHT22;4340;52.516;13.468;2022-09-03T07:38:30;15.30;1.00
8605;DHT22;4340;52.516;13.468;2022-09-03T07:40:59;15.40;1.00
8605;DHT22;4340;52.516;13.468;2022-09-03T07:43:26;15.60;1.00
8605;DHT22;4340;52.516;13.468;2022-09-03T07:45:53;15.60;1.00
8605;DHT22;4340;52.516;13.468;2022-09-03T07:48:20;15.70;1.00
8605;DHT22;4340;52.516;13.468;2022-09-03T07:50:46;15.60;1.00
8605;DHT22;4340;52.516;13.468;2022-09-03T07:53:16;15.60;1.00
8605;DHT22;4340;52.516;13.468;2022-09-03T07:55:45;15.60;1.00
8605;DHT22;4340;52.516;13.468;2022-09-03T07:58:13;15.70;1.00
8605;DHT22;4340;52.516;13.468;2022-09-03T08:00:41;15.80;1.00
8605;DHT22;4340;52.516;13.468;2022-09-03T08:03:08;15.90;1.00
8605;DHT22;4340;52.516;13.468;2022-09-03T08:05:35;16.10;1.00
8605;DHT22;4340;52.516;13.468;2022-09-03T08:08:03;16.30;1.00
8605;DHT22;4340;52.516;13.468;2022-09-03T08:10:30;16.30;1.00
8605;DHT22;4340;52.516;13.468;2022-09-03T08:12:59;16.30;1.00
8605;DHT22;4340;52.516;13.468;2022-09-03T08:15:27;16.20;1.00
8605;DHT22;4340;52.516;13.468;2022-09-03T08:17:53;16.10;1.00
8605;DHT22;4340;52.516;13.468;2022-09-03T08:20:20;16.10;1.00
8605;DHT22;4340;52.516;13.468;2022-09-03T08:22:47;16.30;1.00
8605;DHT22;4340;52.516;13.468;2022-09-03T08:25:13;16.30;1.00
8605;DHT22;4340;52.516;13.468;2022-09-03T08:27:40;16.50;1.00
8605;DHT22;4340;52.516;13.468;2022-09-03T08:30:07;16.50;1.00
8605;DHT22;4340;52.516;13.468;2022-09-03T08:32:37;16.60;1.00
8605;DHT22;4340;52.516;13.468;2022-09-03T08:35:05;16.50;1.00
8605;DHT22;4340;52.516;13.468;2022-09-03T08:37:33;16.60;1.00
8605;DHT22;4340;52.516;13.468;2022-09-03T08:40:00;16.70;1.00
8605;DHT22;4340;52.516;13.468;2022-09-03T08:42:35;16.70;1.00
8605;DHT22;4340;52.516;13.468;2022-09-03T08:45:06;16.80;1.00
8605;DHT22;4340;52.516;13.468;2022-09-03T08:47:38;16.90;1.00
8605;DHT22;4340;52.516;13.468;2022-09-03T08:50:11;16.90;1.00
8605;DHT22;4340;52.516;13.468;2022-09-03T08:52:44;16.90;1.00
8605;DHT22;4340;52.516;13.468;2022-09-03T08:55:17;16.90;1.00
8605;DHT22;4340;52.516;13.468;2022-09-03T08:57:48;17.10;1.00
8605;DHT22;4340;52.516;13.468;2022-09-03T09:00:15;17.10;1.00
8605;DHT22;4340;52.516;13.468;2022-09-03T09:02:53;17.20;1.00
8605;DHT22;4340;52.516;13.468;2022-09-03T09:05:28;17.30;1.00
8605;DHT22;4340;52.516;13.468;2022-09-03T09:08:02;17.40;1.00
8605;DHT22;4340;52.516;13.468;2022-09-03T09:10:38;17.60;1.00
8605;DHT22;4340;52.516;13.468;2022-09-03T09:13:15;17.60;1.00
8605;DHT22;4340;52.516;13.468;2022-09-03T09:15:48;17.70;1.00
8605;DHT22;4340;52.516;13.468;2022-09-03T09:18:23;17.80;1.00
8605;DHT22;4340;52.516;13.468;2022-09-03T09:21:01;17.90;1.00
8605;DHT22;4340;52.516;13.468;2022-09-03T09:23:36;17.90;1.00
8605;DHT22;4340;52.516;13.468;2022-09-03T09:26:06;17.90;1.00
8605;DHT22;4340;52.516;13.468;2022-09-03T09:28:36;18.20;1.00
8605;DHT22;4340;52.516;13.468;2022-09-03T09:31:05;18.20;1.00
8605;DHT22;4340;52.516;13.468;2022-09-03T09:33:34;18.20;1.00
8605;DHT22;4340;52.516;13.468;2022-09-03T09:36:03;18.20;1.00
8605;DHT22;4340;52.516;13.468;2022-09-03T09:38:33;18.30;1.00
8605;DHT22;4340;52.516;13.468;2022-09-03T09:41:08;18.40;1.00
8605;DHT22;4340;52.516;13.468;2022-09-03T09:43:35;18.30;1.00
8605;DHT22;4340;52.516;13.468;2022-09-03T09:46:08;18.40;1.00
8605;DHT22;4340;52.516;13.468;2022-09-03T09:48:42;18.70;1.00
8605;DHT22;4340;52.516;13.468;2022-09-03T09:51:18;18.80;1.00
8605;DHT22;4340;52.516;13.468;2022-09-03T09:53:44;18.90;1.00
8605;DHT22;4340;52.516;13.468;2022-09-03T09:56:20;19.00;1.00
8605;DHT22;4340;52.516;13.468;2022-09-03T09:58:48;19.10;1.00
8605;DHT22;4340;52.516;13.468;2022-09-03T10:01:21;19.10;1.00
8605;DHT22;4340;52.516;13.468;2022-09-03T10:03:52;19.00;1.00
8605;DHT22;4340;52.516;13.468;2022-09-03T10:06:22;19.20;1.00
8605;DHT22;4340;52.516;13.468;2022-09-03T10:09:08;19.10;1.00
8605;DHT22;4340;52.516;13.468;2022-09-03T10:11:37;19.10;1.00
8605;DHT22;4340;52.516;13.468;2022-09-03T10:14:10;19.20;1.00
8605;DHT22;4340;52.516;13.468;2022-09-03T10:16:40;19.30;1.00
8605;DHT22;4340;52.516;13.468;2022-09-03T10:19:17;19.50;1.00
8605;DHT22;4340;52.516;13.468;2022-09-03T10:21:49;19.30;1.00
8605;DHT22;4340;52.516;13.468;2022-09-03T10:24:31;19.30;1.00
8605;DHT22;4340;52.516;13.468;2022-09-03T10:26:58;19.60;1.00
8605;DHT22;4340;52.516;13.468;2022-09-03T10:29:26;19.80;1.00
8605;DHT22;4340;52.516;13.468;2022-09-03T10:32:02;19.90;1.00
8605;DHT22;4340;52.516;13.468;2022-09-03T10:34:38;19.80;1.00
8605;DHT22;4340;52.516;13.468;2022-09-03T10:37:16;19.80;1.00
8605;DHT22;4340;52.516;13.468;2022-09-03T10:40:05;19.80;1.00
8605;DHT22;4340;52.516;13.468;2022-09-03T10:42:41;19.90;1.00
8605;DHT22;4340;52.516;13.468;2022-09-03T10:45:18;19.80;1.00
8605;DHT22;4340;52.516;13.468;2022-09-03T10:50:46;19.60;1.00
8605;DHT22;4340;52.516;13.468;2022-09-03T10:53:25;19.70;1.00
8605;DHT22;4340;52.516;13.468;2022-09-03T10:55:59;19.60;1.00
8605;DHT22;4340;52.516;13.468;2022-09-03T10:58:41;19.60;1.00
8605;DHT22;4340;52.516;13.468;2022-09-03T11:01:17;19.70;1.00
8605;DHT22;4340;52.516;13.468;2022-09-03T11:03:47;20.00;1.00
8605;DHT22;4340;52.516;13.468;2022-09-03T11:06:20;20.00;1.00
8605;DHT22;4340;52.516;13.468;2022-09-03T11:08:54;20.00;1.00
8605;DHT22;4340;52.516;13.468;2022-09-03T11:11:28;20.00;1.00
8605;DHT22;4340;52.516;13.468;2022-09-03T11:14:01;20.20;1.00
8605;DHT22;4340;52.516;13.468;2022-09-03T11:16:31;20.10;1.00
8605;DHT22;4340;52.516;13.468;2022-09-03T11:19:02;20.30;1.00
8605;DHT22;4340;52.516;13.468;2022-09-03T11:21:31;20.20;1.00
8605;DHT22;4340;52.516;13.468;2022-09-03T11:24:05;20.10;1.00
8605;DHT22;4340;52.516;13.468;2022-09-03T11:26:35;20.10;1.00
8605;DHT22;4340;52.516;13.468;2022-09-03T11:29:07;20.20;1.00
8605;DHT22;4340;52.516;13.468;2022-09-03T11:31:44;20.10;1.00
8605;DHT22;4340;52.516;13.468;2022-09-03T11:34:14;20.10;1.00
8605;DHT22;4340;52.516;13.468;2022-09-03T11:36:42;20.30;1.00
8605;DHT22;4340;52.516;13.468;2022-09-03T11:39:13;20.40;1.00
8605;DHT22;4340;52.516;13.468;2022-09-03T11:41:44;20.50;1.00
8605;DHT22;4340;52.516;13.468;2022-09-03T11:44:21;20.40;1.00
8605;DHT22;4340;52.516;13.468;2022-09-03T11:46:55;20.20;1.00
8605;DHT22;4340;52.516;13.468;2022-09-03T11:49:28;20.20;1.00
8605;DHT22;4340;52.516;13.468;2022-09-03T11:51:59;20.10;1.00
8605;DHT22;4340;52.516;13.468;2022-09-03T11:54:27;20.40;1.00
8605;DHT22;4340;52.516;13.468;2022-09-03T11:57:07;20.40;1.00
8605;DHT22;4340;52.516;13.468;2022-09-03T11:59:36;20.60;1.00
8605;DHT22;4340;52.516;13.468;2022-09-03T12:02:08;20.70;1.00
8605;DHT22;4340;52.516;13.468;2022-09-03T12:04:44;20.80;1.00
8605;DHT22;4340;52.516;13.468;2022-09-03T12:07:30;20.60;1.00
8605;DHT22;4340;52.516;13.468;2022-09-03T12:10:08;20.50;1.00
8605;DHT22;4340;52.516;13.468;2022-09-03T12:12:44;20.50;1.00
8605;DHT22;4340;52.516;13.468;2022-09-03T12:15:30;20.40;1.00
8605;DHT22;4340;52.516;13.468;2022-09-03T12:18:03;20.50;1.00
8605;DHT22;4340;52.516;13.468;2022-09-03T12:20:45;20.50;1.00
8605;DHT22;4340;52.516;13.468;2022-09-03T12:23:25;20.50;1.00
8605;DHT22;4340;52.516;13.468;2022-09-03T12:25:52;20.70;1.00
8605;DHT22;4340;52.516;13.468;2022-09-03T12:28:22;20.90;1.00
8605;DHT22;4340;52.516;13.468;2022-09-03T12:30:49;20.80;1.00
8605;DHT22;4340;52.516;13.468;2022-09-03T12:33:19;20.90;1.00
8605;DHT22;4340;52.516;13.468;2022-09-03T12:35:55;20.90;1.00
8605;DHT22;4340;52.516;13.468;2022-09-03T12:38:24;20.90;1.00
8605;DHT22;4340;52.516;13.468;2022-09-03T12:40:51;20.80;1.00
8605;DHT22;4340;52.516;13.468;2022-09-03T12:43:19;20.90;1.00
8605;DHT22;4340;52.516;13.468;2022-09-03T12:45:47;21.00;1.00
8605;DHT22;4340;52.516;13.468;2022-09-03T12:48:16;21.00;1.00
8605;DHT22;4340;52.516;13.468;2022-09-03T12:50:44;20.80;1.00
8605;DHT22;4340;52.516;13.468;2022-09-03T12:53:13;20.90;1.00
8605;DHT22;4340;52.516;13.468;2022-09-03T12:55:44;20.90;1.00
8605;DHT22;4340;52.516;13.468;2022-09-03T12:58:16;20.90;1.00
8605;DHT22;4340;52.516;13.468;2022-09-03T13:00:48;20.80;1.00
8605;DHT22;4340;52.516;13.468;2022-09-03T13:03:18;20.90;1.00
8605;DHT22;4340;52.516;13.468;2022-09-03T13:05:47;20.80;1.00
8605;DHT22;4340;52.516;13.468;2022-09-03T13:08:20;20.60;1.00
8605;DHT22;4340;52.516;13.468;2022-09-03T13:10:51;20.60;1.00
8605;DHT22;4340;52.516;13.468;2022-09-03T13:13:22;20.60;1.00
8605;DHT22;4340;52.516;13.468;2022-09-03T13:16:04;20.70;1.00
8605;DHT22;4340;52.516;13.468;2022-09-03T13:18:38;20.90;1.00
8605;DHT22;4340;52.516;13.468;2022-09-03T13:21:13;21.10;1.00
8605;DHT22;4340;52.516;13.468;2022-09-03T13:23:58;21.20;1.00
8605;DHT22;4340;52.516;13.468;2022-09-03T13:26:34;21.30;1.00
8605;DHT22;4340;52.516;13.468;2022-09-03T13:29:22;21.30;1.00
8605;DHT22;4340;52.516;13.468;2022-09-03T13:31:53;21.30;1.00
8605;DHT22;4340;52.516;13.468;2022-09-03T13:34:24;21.50;1.00
8605;DHT22;4340;52.516;13.468;2022-09-03T13:36:55;21.60;1.00
8605;DHT22;4340;52.516;13.468;2022-09-03T13:39:27;21.50;1.00
8605;DHT22;4340;52.516;13.468;2022-09-03T13:42:04;21.60;1.00
8605;DHT22;4340;52.516;13.468;2022-09-03T13:44:37;21.70;1.00
8605;DHT22;4340;52.516;13.468;2022-09-03T13:47:11;21.60;1.00
8605;DHT22;4340;52.516;13.468;2022-09-03T13:49:41;21.50;1.00
8605;DHT22;4340;52.516;13.468;2022-09-03T13:52:33;21.50;1.00
8605;DHT22;4340;52.516;13.468;2022-09-03T13:55:08;21.50;1.00
8605;DHT22;4340;52.516;13.468;2022-09-03T13:57:45;21.40;1.00
8605;DHT22;4340;52.516;13.468;2022-09-03T14:00:22;21.40;1.00
8605;DHT22;4340;52.516;13.468;2022-09-03T14:02:53;21.50;1.00
8605;DHT22;4340;52.516;13.468;2022-09-03T14:05:33;21.60;1.00
8605;DHT22;4340;52.516;13.468;2022-09-03T14:08:07;21.80;1.00
8605;DHT22;4340;52.516;13.468;2022-09-03T14:10:50;21.90;1.00
8605;DHT22;4340;52.516;13.468;2022-09-03T14:13:27;21.90;1.00
8605;DHT22;4340;52.516;13.468;2022-09-03T14:16:02;21.90;1.00
8605;DHT22;4340;52.516;13.468;2022-09-03T14:18:36;21.80;1.00
8605;DHT22;4340;52.516;13.468;2022-09-03T14:21:07;21.80;1.00
8605;DHT22;4340;52.516;13.468;2022-09-03T14:23:41;21.70;1.00
8605;DHT22;4340;52.516;13.468;2022-09-03T14:26:16;21.60;1.00
8605;DHT22;4340;52.516;13.468;2022-09-03T14:28:47;21.40;1.00
8605;DHT22;4340;52.516;13.468;2022-09-03T14:31:21;21.40;1.00
8605;DHT22;4340;52.516;13.468;2022-09-03T14:33:55;21.40;1.00
8605;DHT22;4340;52.516;13.468;2022-09-03T14:36:28;21.30;1.00
8605;DHT22;4340;52.516;13.468;2022-09-03T14:39:22;21.40;1.00
8605;DHT22;4340;52.516;13.468;2022-09-03T14:42:15;21.50;1.00
8605;DHT22;4340;52.516;13.468;2022-09-03T14:45:18;21.50;1.00
8605;DHT22;4340;52.516;13.468;2022-09-03T14:48:12;21.40;1.00
8605;DHT22;4340;52.516;13.468;2022-09-03T14:50:56;21.40;1.00
8605;DHT22;4340;52.516;13.468;2022-09-03T14:53:43;21.30;1.00
8605;DHT22;4340;52.516;13.468;2022-09-03T14:56:30;21.30;1.00
8605;DHT22;4340;52.516;13.468;2022-09-03T14:59:27;21.20;1.00
8605;DHT22;4340;52.516;13.468;2022-09-03T15:02:26;21.20;1.00
8605;DHT22;4340;52.516;13.468;2022-09-03T15:05:08;21.10;1.00
8605;DHT22;4340;52.516;13.468;2022-09-03T15:07:41;21.10;1.00
8605;DHT22;4340;52.516;13.468;2022-09-03T15:10:17;21.00;1.00
8605;DHT22;4340;52.516;13.468;2022-09-03T15:12:49;21.10;1.00
8605;DHT22;4340;52.516;13.468;2022-09-03T15:15:19;21.10;1.00
8605;DHT22;4340;52.516;13.468;2022-09-03T15:18:08;21.10;1.00
8605;DHT22;4340;52.516;13.468;2022-09-03T15:20:47;21.20;1.00
8605;DHT22;4340;52.516;13.468;2022-09-03T15:23:42;21.30;1.00
8605;DHT22;4340;52.516;13.468;2022-09-03T15:26:44;21.30;1.00
8605;DHT22;4340;52.516;13.468;2022-09-03T15:29:26;21.40;1.00
8605;DHT22;4340;52.516;13.468;2022-09-03T15:31:59;21.40;1.00
8605;DHT22;4340;52.516;13.468;2022-09-03T15:34:55;21.30;1.00
8605;DHT22;4340;52.516;13.468;2022-09-03T15:37:27;21.40;1.00
8605;DHT22;4340;52.516;13.468;2022-09-03T15:39:59;21.30;1.00
8605;DHT22;4340;52.516;13.468;2022-09-03T15:42:29;21.30;1.00
8605;DHT22;4340;52.516;13.468;2022-09-03T15:45:02;21.30;1.00
8605;DHT22;4340;52.516;13.468;2022-09-03T15:47:35;21.30;1.00
8605;DHT22;4340;52.516;13.468;2022-09-03T15:50:15;21.30;1.00
8605;DHT22;4340;52.516;13.468;2022-09-03T15:52:51;21.30;1.00
8605;DHT22;4340;52.516;13.468;2022-09-03T15:55:29;21.20;1.00
8605;DHT22;4340;52.516;13.468;2022-09-03T15:57:59;21.30;1.00
8605;DHT22;4340;52.516;13.468;2022-09-03T16:00:49;21.30;1.00
8605;DHT22;4340;52.516;13.468;2022-09-03T16:03:21;21.40;1.00
8605;DHT22;4340;52.516;13.468;2022-09-03T16:06:01;21.30;1.00
8605;DHT22;4340;52.516;13.468;2022-09-03T16:08:39;21.30;1.00
8605;DHT22;4340;52.516;13.468;2022-09-03T16:11:10;21.30;1.00
8605;DHT22;4340;52.516;13.468;2022-09-03T16:13:57;21.30;1.00
8605;DHT22;4340;52.516;13.468;2022-09-03T16:16:30;21.20;1.00
8605;DHT22;4340;52.516;13.468;2022-09-03T16:19:03;21.10;1.00
8605;DHT22;4340;52.516;13.468;2022-09-03T16:21:37;21.10;1.00
8605;DHT22;4340;52.516;13.468;2022-09-03T16:24:11;21.10;1.00
8605;DHT22;4340;52.516;13.468;2022-09-03T16:26:46;21.00;1.00
8605;DHT22;4340;52.516;13.468;2022-09-03T16:29:16;21.00;1.00
8605;DHT22;4340;52.516;13.468;2022-09-03T16:31:55;21.00;1.00
8605;DHT22;4340;52.516;13.468;2022-09-03T16:34:32;21.00;1.00
8605;DHT22;4340;52.516;13.468;2022-09-03T16:37:08;20.90;1.00
8605;DHT22;4340;52.516;13.468;2022-09-03T16:39:49;20.90;1.00
8605;DHT22;4340;52.516;13.468;2022-09-03T16:42:22;20.90;1.00
8605;DHT22;4340;52.516;13.468;2022-09-03T16:44:58;20.90;1.00
8605;DHT22;4340;52.516;13.468;2022-09-03T16:47:40;20.90;1.00
8605;DHT22;4340;52.516;13.468;2022-09-03T16:50:20;20.90;1.00
8605;DHT22;4340;52.516;13.468;2022-09-03T16:52:59;20.90;1.00
8605;DHT22;4340;52.516;13.468;2022-09-03T16:55:34;20.90;1.00
8605;DHT22;4340;52.516;13.468;2022-09-03T16:58:12;20.90;1.00
8605;DHT22;4340;52.516;13.468;2022-09-03T17:00:51;20.80;1.00
8605;DHT22;4340;52.516;13.468;2022-09-03T17:03:52;20.80;1.00
8605;DHT22;4340;52.516;13.468;2022-09-03T17:06:46;20.80;1.00
8605;DHT22;4340;52.516;13.468;2022-09-03T17:09:24;20.70;1.00
8605;DHT22;4340;52.516;13.468;2022-09-03T17:12:02;20.70;1.00
8605;DHT22;4340;52.516;13.468;2022-09-03T17:14:55;20.60;1.00
8605;DHT22;4340;52.516;13.468;2022-09-03T17:17:35;20.60;1.00
8605;DHT22;4340;52.516;13.468;2022-09-03T17:20:11;20.60;1.00
8605;DHT22;4340;52.516;13.468;2022-09-03T17:22:48;20.60;1.00
8605;DHT22;4340;52.516;13.468;2022-09-03T17:25:28;20.50;1.00
8605;DHT22;4340;52.516;13.468;2022-09-03T17:28:05;20.50;1.00
8605;DHT22;4340;52.516;13.468;2022-09-03T17:30:40;20.50;1.00
8605;DHT22;4340;52.516;13.468;2022-09-03T17:33:33;20.50;1.00
8605;DHT22;4340;52.516;13.468;2022-09-03T17:36:08;20.40;1.00
8605;DHT22;4340;52.516;13.468;2022-09-03T17:39:00;20.40;1.00
8605;DHT22;4340;52.516;13.468;2022-09-03T17:41:36;20.40;1.00
8605;DHT22;4340;52.516;13.468;2022-09-03T17:44:11;20.30;1.00